sensor_id;sensor_type;location;lat;lon;timestamp;temperature;humidity
16301;DHT22;8258;51.020;4.248;2023-08-06T00:01:55;14.60;99.90
16301;DHT22;8258;51.020;4.248;2023-08-06T00:04:22;14.60;99.90
16301;DHT22;8258;51.020;4.248;2023-08-06T00:06:48;14.60;99.90
16301;DHT22;8258;51.020;4.248;2023-08-06T00:09:15;14.60;99.90
16301;DHT22;8258;51.020;4.248;2023-08-06T00:11:42;14.60;99.90
16301;DHT22;8258;51.020;4.248;2023-08-06T00:14:12;14.60;99.90
16301;DHT22;8258;51.020;4.248;2023-08-06T00:16:43;14.70;99.90
16301;DHT22;8258;51.020;4.248;2023-08-06T00:19:10;14.70;99.90
16301;DHT22;8258;51.020;4.248;2023-08-06T00:21:37;14.70;99.90
16301;DHT22;8258;51.020;4.248;2023-08-06T00:24:04;14.70;99.90
16301;DHT22;8258;51.020;4.248;2023-08-06T00:26:31;14.70;99.90
16301;DHT22;8258;51.020;4.248;2023-08-06T00:28:58;14.70;99.90
16301;DHT22;8258;51.020;4.248;2023-08-06T00:31:25;14.70;99.90
16301;DHT22;8258;51.020;4.248;2023-08-06T00:33:53;14.70;99.90
16301;DHT22;8258;51.020;4.248;2023-08-06T00:36:20;14.80;99.90
16301;DHT22;8258;51.020;4.248;2023-08-06T00:38:47;14.80;99.90
16301;DHT22;8258;51.020;4.248;2023-08-06T00:41:14;14.80;99.90
16301;DHT22;8258;51.020;4.248;2023-08-06T00:43:41;14.80;99.90
16301;DHT22;8258;51.020;4.248;2023-08-06T00:46:08;14.80;99.90
16301;DHT22;8258;51.020;4.248;2023-08-06T00:48:35;14.80;99.90
16301;DHT22;8258;51.020;4.248;2023-08-06T00:51:03;14.80;99.90
16301;DHT22;8258;51.020;4.248;2023-08-06T00:53:30;14.80;99.90
16301;DHT22;8258;51.020;4.248;2023-08-06T00:55:58;14.80;99.90
16301;DHT22;8258;51.020;4.248;2023-08-06T00:58:25;14.90;99.90
16301;DHT22;8258;51.020;4.248;2023-08-06T01:00:52;14.80;99.90
16301;DHT22;8258;51.020;4.248;2023-08-06T01:03:19;14.80;99.90
16301;DHT22;8258;51.020;4.248;2023-08-06T01:05:46;14.80;99.90
16301;DHT22;8258;51.020;4.248;2023-08-06T01:08:30;14.70;99.90
16301;DHT22;8258;51.020;4.248;2023-08-06T01:11:13;14.70;99.90
16301;DHT22;8258;51.020;4.248;2023-08-06T01:13:45;14.70;99.90
16301;DHT22;8258;51.020;4.248;2023-08-06T01:16:15;14.80;99.90
16301;DHT22;8258;51.020;4.248;2023-08-06T01:18:44;14.70;99.90
16301;DHT22;8258;51.020;4.248;2023-08-06T01:21:13;14.80;99.90
16301;DHT22;8258;51.020;4.248;2023-08-06T01:23:41;14.80;99.90
16301;DHT22;8258;51.020;4.248;2023-08-06T01:26:14;14.80;99.90
16301;DHT22;8258;51.020;4.248;2023-08-06T01:28:59;14.80;99.90
16301;DHT22;8258;51.020;4.248;2023-08-06T01:31:32;14.90;99.90
16301;DHT22;8258;51.020;4.248;2023-08-06T01:34:01;14.90;99.90
16301;DHT22;8258;51.020;4.248;2023-08-06T01:36:31;15.00;99.90
16301;DHT22;8258;51.020;4.248;2023-08-06T01:38:59;15.00;99.90
16301;DHT22;8258;51.020;4.248;2023-08-06T01:41:26;15.00;99.90
16301;DHT22;8258;51.020;4.248;2023-08-06T01:43:53;15.00;99.90
16301;DHT22;8258;51.020;4.248;2023-08-06T01:46:20;15.00;99.90
16301;DHT22;8258;51.020;4.248;2023-08-06T01:48:47;15.00;99.90
16301;DHT22;8258;51.020;4.248;2023-08-06T01:51:14;15.00;99.90
16301;DHT22;8258;51.020;4.248;2023-08-06T01:53:42;15.00;99.90
16301;DHT22;8258;51.020;4.248;2023-08-06T01:56:09;15.00;99.90
16301;DHT22;8258;51.020;4.248;2023-08-06T01:58:36;15.10;99.90
16301;DHT22;8258;51.020;4.248;2023-08-06T02:01:03;15.00;99.90
16301;DHT22;8258;51.020;4.248;2023-08-06T02:03:30;15.00;99.90
16301;DHT22;8258;51.020;4.248;2023-08-06T02:05:57;15.00;99.90
16301;DHT22;8258;51.020;4.248;2023-08-06T02:08:24;15.10;99.90
16301;DHT22;8258;51.020;4.248;2023-08-06T02:10:52;15.10;99.90
16301;DHT22;8258;51.020;4.248;2023-08-06T02:13:19;15.10;99.90
16301;DHT22;8258;51.020;4.248;2023-08-06T02:15:46;15.10;99.90
16301;DHT22;8258;51.020;4.248;2023-08-06T02:18:14;15.10;99.90
16301;DHT22;8258;51.020;4.248;2023-08-06T02:20:41;15.10;99.90
16301;DHT22;8258;51.020;4.248;2023-08-06T02:23:08;15.10;99.90
16301;DHT22;8258;51.020;4.248;2023-08-06T02:25:35;15.10;99.90
16301;DHT22;8258;51.020;4.248;2023-08-06T02:28:04;15.10;99.90
16301;DHT22;8258;51.020;4.248;2023-08-06T02:30:31;15.10;99.90
16301;DHT22;8258;51.020;4.248;2023-08-06T02:32:58;15.10;99.90
16301;DHT22;8258;51.020;4.248;2023-08-06T02:35:25;15.00;99.90
16301;DHT22;8258;51.020;4.248;2023-08-06T02:37:52;15.00;99.90
16301;DHT22;8258;51.020;4.248;2023-08-06T02:40:18;15.00;99.90
16301;DHT22;8258;51.020;4.248;2023-08-06T02:42:45;15.00;99.90
16301;DHT22;8258;51.020;4.248;2023-08-06T02:45:14;15.00;99.90
16301;DHT22;8258;51.020;4.248;2023-08-06T02:47:41;15.00;99.90
16301;DHT22;8258;51.020;4.248;2023-08-06T02:50:09;15.00;99.90
16301;DHT22;8258;51.020;4.248;2023-08-06T02:52:36;14.90;99.90
16301;DHT22;8258;51.020;4.248;2023-08-06T02:55:05;14.90;99.90
16301;DHT22;8258;51.020;4.248;2023-08-06T02:57:32;14.90;99.90
16301;DHT22;8258;51.020;4.248;2023-08-06T02:59:58;15.00;99.90
16301;DHT22;8258;51.020;4.248;2023-08-06T03:02:27;15.00;99.90
16301;DHT22;8258;51.020;4.248;2023-08-06T03:04:54;15.00;99.90
16301;DHT22;8258;51.020;4.248;2023-08-06T03:07:21;15.00;99.90
16301;DHT22;8258;51.020;4.248;2023-08-06T03:09:48;15.00;99.90
16301;DHT22;8258;51.020;4.248;2023-08-06T03:12:15;15.00;99.90
16301;DHT22;8258;51.020;4.248;2023-08-06T03:14:42;14.90;99.90
16301;DHT22;8258;51.020;4.248;2023-08-06T03:17:09;15.00;99.90
16301;DHT22;8258;51.020;4.248;2023-08-06T03:19:37;15.00;99.90
16301;DHT22;8258;51.020;4.248;2023-08-06T03:22:04;15.00;99.90
16301;DHT22;8258;51.020;4.248;2023-08-06T03:24:32;15.00;99.90
16301;DHT22;8258;51.020;4.248;2023-08-06T03:26:59;14.90;99.90
16301;DHT22;8258;51.020;4.248;2023-08-06T03:29:25;14.90;99.90
16301;DHT22;8258;51.020;4.248;2023-08-06T03:31:52;14.90;99.90
16301;DHT22;8258;51.020;4.248;2023-08-06T03:34:19;14.90;99.90
16301;DHT22;8258;51.020;4.248;2023-08-06T03:36:48;14.90;99.90
16301;DHT22;8258;51.020;4.248;2023-08-06T03:39:15;14.90;99.90
16301;DHT22;8258;51.020;4.248;2023-08-06T03:41:42;14.90;99.90
16301;DHT22;8258;51.020;4.248;2023-08-06T03:44:09;14.90;99.90
16301;DHT22;8258;51.020;4.248;2023-08-06T03:46:35;14.90;99.90
16301;DHT22;8258;51.020;4.248;2023-08-06T03:49:03;14.80;99.90
16301;DHT22;8258;51.020;4.248;2023-08-06T03:51:30;14.80;99.90
16301;DHT22;8258;51.020;4.248;2023-08-06T03:53:58;14.80;99.90
16301;DHT22;8258;51.020;4.248;2023-08-06T03:56:25;14.80;99.90
16301;DHT22;8258;51.020;4.248;2023-08-06T03:58:53;14.80;99.90
16301;DHT22;8258;51.020;4.248;2023-08-06T04:01:20;14.80;99.90
16301;DHT22;8258;51.020;4.248;2023-08-06T04:03:46;14.80;99.90
16301;DHT22;8258;51.020;4.248;2023-08-06T04:06:13;14.70;99.90
16301;DHT22;8258;51.020;4.248;2023-08-06T04:08:40;14.60;99.90
16301;DHT22;8258;51.020;4.248;2023-08-06T04:11:09;14.60;99.90
16301;DHT22;8258;51.020;4.248;2023-08-06T04:13:36;14.60;99.90
16301;DHT22;8258;51.020;4.248;2023-08-06T04:16:03;14.60;99.90
16301;DHT22;8258;51.020;4.248;2023-08-06T04:18:31;14.30;99.90
16301;DHT22;8258;51.020;4.248;2023-08-06T04:20:58;14.20;99.90
16301;DHT22;8258;51.020;4.248;2023-08-06T04:23:24;14.00;99.90
16301;DHT22;8258;51.020;4.248;2023-08-06T04:25:51;13.90;99.90
16301;DHT22;8258;51.020;4.248;2023-08-06T04:28:20;13.80;99.90
16301;DHT22;8258;51.020;4.248;2023-08-06T04:30:47;13.70;99.90
16301;DHT22;8258;51.020;4.248;2023-08-06T04:33:14;13.60;99.90
16301;DHT22;8258;51.020;4.248;2023-08-06T04:35:41;13.60;99.90
16301;DHT22;8258;51.020;4.248;2023-08-06T04:38:07;13.60;99.90
16301;DHT22;8258;51.020;4.248;2023-08-06T04:40:36;13.60;99.90
16301;DHT22;8258;51.020;4.248;2023-08-06T04:43:03;13.50;99.90
16301;DHT22;8258;51.020;4.248;2023-08-06T04:45:31;13.50;99.90
16301;DHT22;8258;51.020;4.248;2023-08-06T04:47:58;13.60;99.90
16301;DHT22;8258;51.020;4.248;2023-08-06T04:50:25;13.60;99.90
16301;DHT22;8258;51.020;4.248;2023-08-06T04:52:52;13.60;99.90
16301;DHT22;8258;51.020;4.248;2023-08-06T04:55:20;13.60;99.90
16301;DHT22;8258;51.020;4.248;2023-08-06T04:57:47;13.70;99.90
16301;DHT22;8258;51.020;4.248;2023-08-06T05:00:14;13.70;99.90
16301;DHT22;8258;51.020;4.248;2023-08-06T05:02:42;13.70;99.90
16301;DHT22;8258;51.020;4.248;2023-08-06T05:05:09;13.80;99.90
16301;DHT22;8258;51.020;4.248;2023-08-06T05:07:36;13.80;99.90
16301;DHT22;8258;51.020;4.248;2023-08-06T05:10:03;13.90;99.90
16301;DHT22;8258;51.020;4.248;2023-08-06T05:12:30;13.90;99.90
16301;DHT22;8258;51.020;4.248;2023-08-06T05:14:57;13.90;99.90
16301;DHT22;8258;51.020;4.248;2023-08-06T05:17:24;13.90;99.90
16301;DHT22;8258;51.020;4.248;2023-08-06T05:19:52;13.90;99.90
16301;DHT22;8258;51.020;4.248;2023-08-06T05:22:19;13.90;99.90
16301;DHT22;8258;51.020;4.248;2023-08-06T05:24:46;13.90;99.90
16301;DHT22;8258;51.020;4.248;2023-08-06T05:27:13;14.00;99.90
16301;DHT22;8258;51.020;4.248;2023-08-06T05:29:40;14.00;99.90
16301;DHT22;8258;51.020;4.248;2023-08-06T05:32:07;14.00;99.90
16301;DHT22;8258;51.020;4.248;2023-08-06T05:34:34;14.00;99.90
16301;DHT22;8258;51.020;4.248;2023-08-06T05:37:03;14.00;99.90
16301;DHT22;8258;51.020;4.248;2023-08-06T05:39:30;14.10;99.90
16301;DHT22;8258;51.020;4.248;2023-08-06T05:41:57;14.10;99.90
16301;DHT22;8258;51.020;4.248;2023-08-06T05:44:24;14.10;99.90
16301;DHT22;8258;51.020;4.248;2023-08-06T05:46:51;14.10;99.90
16301;DHT22;8258;51.020;4.248;2023-08-06T05:49:19;14.10;99.90
16301;DHT22;8258;51.020;4.248;2023-08-06T05:51:53;14.10;99.90
16301;DHT22;8258;51.020;4.248;2023-08-06T05:54:21;14.10;99.90
16301;DHT22;8258;51.020;4.248;2023-08-06T05:56:48;14.00;99.90
16301;DHT22;8258;51.020;4.248;2023-08-06T05:59:15;14.10;99.90
16301;DHT22;8258;51.020;4.248;2023-08-06T06:01:42;14.10;99.90
16301;DHT22;8258;51.020;4.248;2023-08-06T06:04:09;14.20;99.90
16301;DHT22;8258;51.020;4.248;2023-08-06T06:06:36;14.20;99.90
16301;DHT22;8258;51.020;4.248;2023-08-06T06:09:03;14.20;99.90
16301;DHT22;8258;51.020;4.248;2023-08-06T06:11:31;14.20;99.90
16301;DHT22;8258;51.020;4.248;2023-08-06T06:13:58;14.20;99.90
16301;DHT22;8258;51.020;4.248;2023-08-06T06:16:25;14.30;99.90
16301;DHT22;8258;51.020;4.248;2023-08-06T06:18:52;14.30;99.90
16301;DHT22;8258;51.020;4.248;2023-08-06T06:21:20;14.20;99.90
16301;DHT22;8258;51.020;4.248;2023-08-06T06:23:47;14.30;99.90
16301;DHT22;8258;51.020;4.248;2023-08-06T06:26:14;14.30;99.90
16301;DHT22;8258;51.020;4.248;2023-08-06T06:28:42;14.30;99.90
16301;DHT22;8258;51.020;4.248;2023-08-06T06:31:09;14.40;99.90
16301;DHT22;8258;51.020;4.248;2023-08-06T06:33:36;14.50;99.90
16301;DHT22;8258;51.020;4.248;2023-08-06T06:36:03;14.50;99.90
16301;DHT22;8258;51.020;4.248;2023-08-06T06:38:33;14.60;99.90
16301;DHT22;8258;51.020;4.248;2023-08-06T06:41:00;14.60;99.90
16301;DHT22;8258;51.020;4.248;2023-08-06T06:43:28;14.60;99.90
16301;DHT22;8258;51.020;4.248;2023-08-06T06:45:57;14.60;99.90
16301;DHT22;8258;51.020;4.248;2023-08-06T06:48:26;14.60;99.90
16301;DHT22;8258;51.020;4.248;2023-08-06T06:50:54;14.50;99.90
16301;DHT22;8258;51.020;4.248;2023-08-06T06:53:21;14.40;99.90
16301;DHT22;8258;51.020;4.248;2023-08-06T06:55:52;14.40;99.90
16301;DHT22;8258;51.020;4.248;2023-08-06T06:58:19;14.50;99.90
16301;DHT22;8258;51.020;4.248;2023-08-06T07:00:46;14.60;99.90
16301;DHT22;8258;51.020;4.248;2023-08-06T07:03:15;14.60;99.90
16301;DHT22;8258;51.020;4.248;2023-08-06T07:05:43;14.80;99.90
16301;DHT22;8258;51.020;4.248;2023-08-06T07:08:10;15.00;99.90
16301;DHT22;8258;51.020;4.248;2023-08-06T07:10:37;15.00;99.90
16301;DHT22;8258;51.020;4.248;2023-08-06T07:13:04;15.00;99.90
16301;DHT22;8258;51.020;4.248;2023-08-06T07:15:31;14.90;99.90
16301;DHT22;8258;51.020;4.248;2023-08-06T07:17:58;14.70;99.90
16301;DHT22;8258;51.020;4.248;2023-08-06T07:20:28;14.70;99.90
16301;DHT22;8258;51.020;4.248;2023-08-06T07:22:58;14.70;99.90
16301;DHT22;8258;51.020;4.248;2023-08-06T07:25:25;14.80;99.90
16301;DHT22;8258;51.020;4.248;2023-08-06T07:27:52;14.70;99.90
16301;DHT22;8258;51.020;4.248;2023-08-06T07:30:19;14.90;99.90
16301;DHT22;8258;51.020;4.248;2023-08-06T07:32:46;15.10;99.90
16301;DHT22;8258;51.020;4.248;2023-08-06T07:35:14;15.30;99.90
16301;DHT22;8258;51.020;4.248;2023-08-06T07:37:43;15.50;99.90
16301;DHT22;8258;51.020;4.248;2023-08-06T07:40:11;15.50;99.90
16301;DHT22;8258;51.020;4.248;2023-08-06T07:42:38;15.60;99.90
16301;DHT22;8258;51.020;4.248;2023-08-06T07:45:06;15.90;99.90
16301;DHT22;8258;51.020;4.248;2023-08-06T07:47:33;16.00;99.90
16301;DHT22;8258;51.020;4.248;2023-08-06T07:50:00;16.00;99.90
16301;DHT22;8258;51.020;4.248;2023-08-06T07:52:27;16.20;99.90
16301;DHT22;8258;51.020;4.248;2023-08-06T07:54:56;16.30;99.90
16301;DHT22;8258;51.020;4.248;2023-08-06T07:57:23;16.30;99.90
16301;DHT22;8258;51.020;4.248;2023-08-06T07:59:50;16.30;99.90
16301;DHT22;8258;51.020;4.248;2023-08-06T08:02:19;16.20;99.90
16301;DHT22;8258;51.020;4.248;2023-08-06T08:04:46;16.10;99.90
16301;DHT22;8258;51.020;4.248;2023-08-06T08:07:14;15.90;99.90
16301;DHT22;8258;51.020;4.248;2023-08-06T08:09:41;15.60;99.90
16301;DHT22;8258;51.020;4.248;2023-08-06T08:12:10;15.40;99.90
16301;DHT22;8258;51.020;4.248;2023-08-06T08:14:37;15.30;99.90
16301;DHT22;8258;51.020;4.248;2023-08-06T08:17:05;15.50;99.90
16301;DHT22;8258;51.020;4.248;2023-08-06T08:19:32;15.90;99.90
16301;DHT22;8258;51.020;4.248;2023-08-06T08:21:59;16.60;99.90
16301;DHT22;8258;51.020;4.248;2023-08-06T08:24:26;16.90;99.90
16301;DHT22;8258;51.020;4.248;2023-08-06T08:26:54;17.20;99.90
16301;DHT22;8258;51.020;4.248;2023-08-06T08:29:22;16.80;99.90
16301;DHT22;8258;51.020;4.248;2023-08-06T08:31:49;16.50;99.90
16301;DHT22;8258;51.020;4.248;2023-08-06T08:34:16;16.30;99.90
16301;DHT22;8258;51.020;4.248;2023-08-06T08:36:44;16.30;99.90
16301;DHT22;8258;51.020;4.248;2023-08-06T08:39:12;16.40;99.90
16301;DHT22;8258;51.020;4.248;2023-08-06T08:41:40;16.70;99.90
16301;DHT22;8258;51.020;4.248;2023-08-06T08:44:09;16.70;99.90
16301;DHT22;8258;51.020;4.248;2023-08-06T08:46:40;16.50;99.90
16301;DHT22;8258;51.020;4.248;2023-08-06T08:49:07;16.30;99.90
16301;DHT22;8258;51.020;4.248;2023-08-06T08:51:34;16.10;99.90
16301;DHT22;8258;51.020;4.248;2023-08-06T08:54:03;15.90;99.90
16301;DHT22;8258;51.020;4.248;2023-08-06T08:56:32;15.70;99.90
16301;DHT22;8258;51.020;4.248;2023-08-06T08:58:59;15.40;99.90
16301;DHT22;8258;51.020;4.248;2023-08-06T09:01:27;15.10;99.90
16301;DHT22;8258;51.020;4.248;2023-08-06T09:03:57;15.00;99.90
16301;DHT22;8258;51.020;4.248;2023-08-06T09:06:25;15.00;99.90
16301;DHT22;8258;51.020;4.248;2023-08-06T09:08:59;15.00;99.90
16301;DHT22;8258;51.020;4.248;2023-08-06T09:11:29;15.00;99.90
16301;DHT22;8258;51.020;4.248;2023-08-06T09:14:04;15.10;99.90
16301;DHT22;8258;51.020;4.248;2023-08-06T09:16:34;14.90;99.90
16301;DHT22;8258;51.020;4.248;2023-08-06T09:19:08;14.70;99.90
16301;DHT22;8258;51.020;4.248;2023-08-06T09:21:37;14.70;99.90
16301;DHT22;8258;51.020;4.248;2023-08-06T09:24:07;14.70;99.90
16301;DHT22;8258;51.020;4.248;2023-08-06T09:26:35;14.70;99.90
16301;DHT22;8258;51.020;4.248;2023-08-06T09:29:05;14.60;99.90
16301;DHT22;8258;51.020;4.248;2023-08-06T09:31:40;14.60;99.90
16301;DHT22;8258;51.020;4.248;2023-08-06T09:34:12;14.60;99.90
16301;DHT22;8258;51.020;4.248;2023-08-06T09:36:41;14.60;99.90
16301;DHT22;8258;51.020;4.248;2023-08-06T09:39:15;14.60;99.90
16301;DHT22;8258;51.020;4.248;2023-08-06T09:41:43;14.60;99.90
16301;DHT22;8258;51.020;4.248;2023-08-06T09:44:16;14.60;99.90
16301;DHT22;8258;51.020;4.248;2023-08-06T09:46:47;14.60;99.90
16301;DHT22;8258;51.020;4.248;2023-08-06T09:49:17;14.60;99.90
16301;DHT22;8258;51.020;4.248;2023-08-06T09:51:45;14.50;99.90
16301;DHT22;8258;51.020;4.248;2023-08-06T09:54:12;14.60;99.90
16301;DHT22;8258;51.020;4.248;2023-08-06T09:56:40;14.60;99.90
16301;DHT22;8258;51.020;4.248;2023-08-06T09:59:09;14.70;99.90
16301;DHT22;8258;51.020;4.248;2023-08-06T10:01:37;14.60;99.90
16301;DHT22;8258;51.020;4.248;2023-08-06T10:04:06;14.60;99.90
16301;DHT22;8258;51.020;4.248;2023-08-06T10:06:35;14.60;99.90
16301;DHT22;8258;51.020;4.248;2023-08-06T10:09:03;14.80;99.90
16301;DHT22;8258;51.020;4.248;2023-08-06T10:11:30;14.90;99.90
16301;DHT22;8258;51.020;4.248;2023-08-06T10:14:02;15.10;99.90
16301;DHT22;8258;51.020;4.248;2023-08-06T10:16:31;15.20;99.90
16301;DHT22;8258;51.020;4.248;2023-08-06T10:18:58;15.40;99.90
16301;DHT22;8258;51.020;4.248;2023-08-06T10:21:26;15.40;99.90
16301;DHT22;8258;51.020;4.248;2023-08-06T10:23:57;15.50;99.90
16301;DHT22;8258;51.020;4.248;2023-08-06T10:26:26;15.50;99.90
16301;DHT22;8258;51.020;4.248;2023-08-06T10:28:53;15.40;99.90
16301;DHT22;8258;51.020;4.248;2023-08-06T10:31:21;15.40;99.90
16301;DHT22;8258;51.020;4.248;2023-08-06T10:34:10;15.40;99.90
16301;DHT22;8258;51.020;4.248;2023-08-06T10:36:38;15.50;99.90
16301;DHT22;8258;51.020;4.248;2023-08-06T10:39:05;15.50;99.90
16301;DHT22;8258;51.020;4.248;2023-08-06T10:41:32;15.50;99.90
16301;DHT22;8258;51.020;4.248;2023-08-06T10:44:06;15.30;99.90
16301;DHT22;8258;51.020;4.248;2023-08-06T10:46:34;15.10;99.90
16301;DHT22;8258;51.020;4.248;2023-08-06T10:49:01;15.20;99.90
16301;DHT22;8258;51.020;4.248;2023-08-06T10:51:30;15.30;99.90
16301;DHT22;8258;51.020;4.248;2023-08-06T10:53:57;15.30;99.90
16301;DHT22;8258;51.020;4.248;2023-08-06T10:56:25;15.20;99.90
16301;DHT22;8258;51.020;4.248;2023-08-06T10:58:54;15.30;99.90
16301;DHT22;8258;51.020;4.248;2023-08-06T11:01:22;15.30;99.90
16301;DHT22;8258;51.020;4.248;2023-08-06T11:03:50;15.40;99.90
16301;DHT22;8258;51.020;4.248;2023-08-06T11:06:19;15.60;99.90
16301;DHT22;8258;51.020;4.248;2023-08-06T11:08:52;15.70;99.90
16301;DHT22;8258;51.020;4.248;2023-08-06T11:11:23;15.80;99.90
16301;DHT22;8258;51.020;4.248;2023-08-06T11:13:51;15.80;99.90
16301;DHT22;8258;51.020;4.248;2023-08-06T11:16:19;15.90;99.90
16301;DHT22;8258;51.020;4.248;2023-08-06T11:18:47;15.90;99.90
16301;DHT22;8258;51.020;4.248;2023-08-06T11:21:14;15.90;99.90
16301;DHT22;8258;51.020;4.248;2023-08-06T11:23:41;15.70;99.90
16301;DHT22;8258;51.020;4.248;2023-08-06T11:26:09;15.30;99.90
16301;DHT22;8258;51.020;4.248;2023-08-06T11:28:36;15.00;99.90
16301;DHT22;8258;51.020;4.248;2023-08-06T11:31:03;14.90;99.90
16301;DHT22;8258;51.020;4.248;2023-08-06T11:33:30;14.90;99.90
16301;DHT22;8258;51.020;4.248;2023-08-06T11:35:59;14.70;99.90
16301;DHT22;8258;51.020;4.248;2023-08-06T11:38:26;14.80;99.90
16301;DHT22;8258;51.020;4.248;2023-08-06T11:40:54;15.20;99.90
16301;DHT22;8258;51.020;4.248;2023-08-06T11:43:22;15.60;99.90
16301;DHT22;8258;51.020;4.248;2023-08-06T11:45:50;15.80;99.90
16301;DHT22;8258;51.020;4.248;2023-08-06T11:48:19;16.00;99.90
16301;DHT22;8258;51.020;4.248;2023-08-06T11:50:46;15.90;99.90
16301;DHT22;8258;51.020;4.248;2023-08-06T11:53:14;16.10;99.90
16301;DHT22;8258;51.020;4.248;2023-08-06T11:55:41;16.10;99.90
16301;DHT22;8258;51.020;4.248;2023-08-06T11:58:09;15.90;99.90
16301;DHT22;8258;51.020;4.248;2023-08-06T12:00:42;15.90;99.90
16301;DHT22;8258;51.020;4.248;2023-08-06T12:03:10;15.80;99.90
16301;DHT22;8258;51.020;4.248;2023-08-06T12:05:37;15.80;99.90
16301;DHT22;8258;51.020;4.248;2023-08-06T12:08:05;15.80;99.90
16301;DHT22;8258;51.020;4.248;2023-08-06T12:10:32;15.70;99.90
16301;DHT22;8258;51.020;4.248;2023-08-06T12:13:00;15.50;99.90
16301;DHT22;8258;51.020;4.248;2023-08-06T12:15:28;15.50;99.90
16301;DHT22;8258;51.020;4.248;2023-08-06T12:17:57;15.40;99.90
16301;DHT22;8258;51.020;4.248;2023-08-06T12:20:24;15.40;99.90
16301;DHT22;8258;51.020;4.248;2023-08-06T12:22:52;15.30;99.90
16301;DHT22;8258;51.020;4.248;2023-08-06T12:25:19;15.40;99.90
16301;DHT22;8258;51.020;4.248;2023-08-06T12:27:46;15.30;99.90
16301;DHT22;8258;51.020;4.248;2023-08-06T12:30:14;15.30;99.90
16301;DHT22;8258;51.020;4.248;2023-08-06T12:32:41;15.30;99.90
16301;DHT22;8258;51.020;4.248;2023-08-06T12:35:09;15.20;99.90
16301;DHT22;8258;51.020;4.248;2023-08-06T12:37:36;15.10;99.90
16301;DHT22;8258;51.020;4.248;2023-08-06T12:40:05;15.00;99.90
16301;DHT22;8258;51.020;4.248;2023-08-06T12:42:32;15.00;99.90
16301;DHT22;8258;51.020;4.248;2023-08-06T12:45:00;15.00;99.90
16301;DHT22;8258;51.020;4.248;2023-08-06T12:47:28;14.90;99.90
16301;DHT22;8258;51.020;4.248;2023-08-06T12:49:55;14.80;99.90
16301;DHT22;8258;51.020;4.248;2023-08-06T12:52:23;14.70;99.90
16301;DHT22;8258;51.020;4.248;2023-08-06T12:54:50;14.70;99.90
16301;DHT22;8258;51.020;4.248;2023-08-06T12:57:17;14.60;99.90
16301;DHT22;8258;51.020;4.248;2023-08-06T12:59:44;14.70;99.90
16301;DHT22;8258;51.020;4.248;2023-08-06T13:02:11;14.70;99.90
16301;DHT22;8258;51.020;4.248;2023-08-06T13:04:38;14.90;99.90
16301;DHT22;8258;51.020;4.248;2023-08-06T13:07:05;15.10;99.90
16301;DHT22;8258;51.020;4.248;2023-08-06T13:09:34;15.20;99.90
16301;DHT22;8258;51.020;4.248;2023-08-06T13:12:01;15.30;99.90
16301;DHT22;8258;51.020;4.248;2023-08-06T13:14:31;15.20;99.90
16301;DHT22;8258;51.020;4.248;2023-08-06T13:16:58;15.10;99.90
16301;DHT22;8258;51.020;4.248;2023-08-06T13:19:25;14.90;99.90
16301;DHT22;8258;51.020;4.248;2023-08-06T13:22:00;15.00;99.90
16301;DHT22;8258;51.020;4.248;2023-08-06T13:24:28;15.00;99.90
16301;DHT22;8258;51.020;4.248;2023-08-06T13:26:58;14.90;99.90
16301;DHT22;8258;51.020;4.248;2023-08-06T13:29:25;14.80;99.90
16301;DHT22;8258;51.020;4.248;2023-08-06T13:31:54;14.60;99.90
16301;DHT22;8258;51.020;4.248;2023-08-06T13:34:21;14.60;99.90
16301;DHT22;8258;51.020;4.248;2023-08-06T13:36:48;14.50;99.90
16301;DHT22;8258;51.020;4.248;2023-08-06T13:39:16;14.40;99.90
16301;DHT22;8258;51.020;4.248;2023-08-06T13:41:44;14.50;99.90
16301;DHT22;8258;51.020;4.248;2023-08-06T13:44:12;14.50;99.90
16301;DHT22;8258;51.020;4.248;2023-08-06T13:46:42;14.40;99.90
16301;DHT22;8258;51.020;4.248;2023-08-06T13:49:09;14.40;99.90
16301;DHT22;8258;51.020;4.248;2023-08-06T13:51:36;14.50;99.90
16301;DHT22;8258;51.020;4.248;2023-08-06T13:54:04;14.60;99.90
16301;DHT22;8258;51.020;4.248;2023-08-06T13:56:31;14.80;99.90
16301;DHT22;8258;51.020;4.248;2023-08-06T13:58:58;14.90;99.90
16301;DHT22;8258;51.020;4.248;2023-08-06T14:01:27;14.90;99.90
16301;DHT22;8258;51.020;4.248;2023-08-06T14:03:54;14.90;99.90
16301;DHT22;8258;51.020;4.248;2023-08-06T14:06:21;14.90;99.90
16301;DHT22;8258;51.020;4.248;2023-08-06T14:08:48;15.00;99.90
16301;DHT22;8258;51.020;4.248;2023-08-06T14:11:15;15.00;99.90
16301;DHT22;8258;51.020;4.248;2023-08-06T14:13:42;15.00;99.90
16301;DHT22;8258;51.020;4.248;2023-08-06T14:16:09;15.00;99.90
16301;DHT22;8258;51.020;4.248;2023-08-06T14:18:37;15.00;99.90
16301;DHT22;8258;51.020;4.248;2023-08-06T14:21:04;15.20;99.90
16301;DHT22;8258;51.020;4.248;2023-08-06T14:23:31;15.20;99.90
16301;DHT22;8258;51.020;4.248;2023-08-06T14:25:58;15.40;99.90
16301;DHT22;8258;51.020;4.248;2023-08-06T14:28:25;15.40;99.90
16301;DHT22;8258;51.020;4.248;2023-08-06T14:30:52;15.60;99.90
16301;DHT22;8258;51.020;4.248;2023-08-06T14:33:19;15.70;99.90
16301;DHT22;8258;51.020;4.248;2023-08-06T14:35:47;15.80;99.90
16301;DHT22;8258;51.020;4.248;2023-08-06T14:38:14;15.70;99.90
16301;DHT22;8258;51.020;4.248;2023-08-06T14:40:42;15.50;99.90
16301;DHT22;8258;51.020;4.248;2023-08-06T14:43:09;15.50;99.90
16301;DHT22;8258;51.020;4.248;2023-08-06T14:45:37;15.40;99.90
16301;DHT22;8258;51.020;4.248;2023-08-06T14:48:05;15.40;99.90
16301;DHT22;8258;51.020;4.248;2023-08-06T14:50:32;15.10;99.90
16301;DHT22;8258;51.020;4.248;2023-08-06T14:53:01;14.90;99.90
16301;DHT22;8258;51.020;4.248;2023-08-06T14:55:28;14.60;99.90
16301;DHT22;8258;51.020;4.248;2023-08-06T14:57:55;14.50;99.90
16301;DHT22;8258;51.020;4.248;2023-08-06T15:00:24;14.40;99.90
16301;DHT22;8258;51.020;4.248;2023-08-06T15:02:51;14.30;99.90
16301;DHT22;8258;51.020;4.248;2023-08-06T15:05:18;14.50;99.90
16301;DHT22;8258;51.020;4.248;2023-08-06T15:07:45;14.50;99.90
16301;DHT22;8258;51.020;4.248;2023-08-06T15:10:14;14.50;99.90
16301;DHT22;8258;51.020;4.248;2023-08-06T15:12:41;14.50;99.90
16301;DHT22;8258;51.020;4.248;2023-08-06T15:15:09;14.70;99.90
16301;DHT22;8258;51.020;4.248;2023-08-06T15:17:37;14.80;99.90
16301;DHT22;8258;51.020;4.248;2023-08-06T15:20:05;15.00;99.90
16301;DHT22;8258;51.020;4.248;2023-08-06T15:22:32;15.20;99.90
16301;DHT22;8258;51.020;4.248;2023-08-06T15:25:00;15.20;99.90
16301;DHT22;8258;51.020;4.248;2023-08-06T15:27:28;15.30;99.90
16301;DHT22;8258;51.020;4.248;2023-08-06T15:29:55;15.50;99.90
16301;DHT22;8258;51.020;4.248;2023-08-06T15:32:22;15.80;99.90
16301;DHT22;8258;51.020;4.248;2023-08-06T15:34:50;15.90;99.90
16301;DHT22;8258;51.020;4.248;2023-08-06T15:37:17;15.90;99.90
16301;DHT22;8258;51.020;4.248;2023-08-06T15:39:44;15.70;99.90
16301;DHT22;8258;51.020;4.248;2023-08-06T15:42:11;15.70;99.90
16301;DHT22;8258;51.020;4.248;2023-08-06T15:44:40;15.70;99.90
16301;DHT22;8258;51.020;4.248;2023-08-06T15:47:07;15.80;99.90
16301;DHT22;8258;51.020;4.248;2023-08-06T15:49:34;15.90;99.90